Date,TemperatureHighF,TemperatureAvgF,TemperatureLowF,DewpointHighF,DewpointAvgF,DewpointLowF,HumidityHigh,HumidityAvg,HumidityLow,PressureMaxIn,PressureMinIn,WindSpeedMaxMPH,WindSpeedAvgMPH,GustSpeedMaxMPH,PrecipitationSumIn
2013-2-1,75.2,48.8,28.8,47.9,31.1,21.2,75,52,38,30.39,30.33,6,2,12,0.00
2013-2-2,69.3,51.5,40.6,43.9,33.6,26.6,93,52,40,30.42,30.33,6,2,10,0.00
2013-2-3,59.7,45.4,33.1,48.3,39.9,33.1,100,84,47,30.33,30.21,6,1,10,0.08
2013-2-4,72.3,46.7,29.5,46.0,34.5,27.1,100,67,39,30.27,30.18,10,2,11,0.00
2013-2-5,72.9,45.7,27.9,46.5,32.5,22.3,97,64,39,30.24,30.15,8,2,13,0.00
2013-2-6,69.6,43.9,26.4,44.2,31.3,22.4,100,66,40,30.24,30.09,10,2,16,0.00
2013-2-7,70.7,42.6,24.4,44.5,31.9,21.1,100,71,39,30.24,30.06,10,3,14,0.00
2013-2-8,34.0,29.9,26.1,33.5,29.2,25.1,100,97,86,30.06,29.91,13,6,22,0.00
2013-2-9,41.7,28.9,17.4,29.7,25.2,14.0,100,86,61,30.12,29.94,6,2,10,0.00
2013-2-10,47.8,27.9,15.1,32.0,24.1,14.5,100,87,47,30.12,30.06,9,2,9,0.04
2013-2-11,45.1,30.7,21.6,25.1,18.4,6.8,100,64,42,30.27,30.09,10,4,15,0.04
2013-2-12,61.2,39.2,21.4,37.4,20.0,6.5,63,46,41,30.36,30.24,9,4,13,0.16
2013-2-13,69.8,44.0,25.9,45.7,24.8,11.4,67,47,40,30.33,30.27,10,3,14,0.00
2013-2-14,62.8,48.1,35.2,40.2,28.2,18.5,50,46,43,30.36,30.27,12,5,17,0.00
2013-2-15,67.5,50.3,41.0,43.6,30.4,21.8,48,46,42,30.42,30.30,17,8,26,0.00
2013-2-16,74.7,48.0,26.4,50.7,28.5,9.7,49,46,43,30.39,30.21,9,2,13,0.00
2013-2-17,65.8,41.4,24.1,43.9,25.9,9.2,96,56,44,30.18,30.09,9,2,15,0.00
2013-2-18,66.6,39.1,22.8,41.5,28.0,17.7,100,70,40,30.18,30.06,10,2,15,0.00
2013-2-19,38.7,31.7,22.3,34.3,30.5,21.8,100,96,77,30.06,29.80,10,3,17,0.04
2013-2-20,40.3,28.9,23.9,29.8,25.6,21.7,100,88,63,30.06,29.74,0,0,0,0.00
2013-2-21,50.5,29.2,13.3,30.5,20.9,10.2,100,73,46,30.15,30.03,6,1,10,0.24
2013-2-22,64.0,35.2,16.9,41.1,22.8,11.1,100,64,42,30.27,30.15,6,1,9,0.08
2013-2-23,59.2,37.8,21.2,36.1,26.1,18.2,100,67,42,30.27,30.06,10,3,21,0.00
2013-2-24,48.7,36.3,25.9,27.8,17.9,8.0,50,47,44,30.30,30.09,22,9,27,0.00
2013-2-25,65.3,39.9,23.4,40.4,21.4,7.0,64,48,40,30.30,30.18,9,3,13,0.00
2013-2-26,61.7,41.2,22.6,39.6,23.2,10.1,66,49,42,30.27,30.12,15,4,17,0.00
2013-2-27,61.9,44.0,33.3,39.8,24.5,15.7,48,46,44,30.42,30.27,12,5,17,0.00
2013-2-28,67.3,48.6,36.7,43.4,28.6,18.4,48,46,42,30.47,30.39,13,5,15,0.00